sensor_id;sensor_type;location;lat;lon;timestamp;pressure;altitude;pressure_sealevel;temperature;humidity
30614;BME280;17381;51.690;5.270;2023-01-29T00:29:37;103023.16;;;0.08;77.94
30614;BME280;17381;51.690;5.270;2023-01-29T01:25:53;102967.09;;;0.07;79.92
30614;BME280;17381;51.690;5.270;2023-01-29T01:33:04;102991.63;;;0.32;80.00
30614;BME280;17381;51.690;5.270;2023-01-29T01:36:35;102998.81;;;0.37;79.83
30614;BME280;17381;51.690;5.270;2023-01-29T02:13:05;103007.63;;;0.75;79.76
30614;BME280;17381;51.690;5.270;2023-01-29T02:16:39;103018.19;;;0.80;79.49
30614;BME280;17381;51.690;5.270;2023-01-29T02:40:36;102996.19;;;0.88;78.97
30614;BME280;17381;51.690;5.270;2023-01-29T03:07:47;102997.47;;;0.80;78.90
30614;BME280;17381;51.690;5.270;2023-01-29T03:11:24;102993.50;;;0.86;79.28
30614;BME280;17381;51.690;5.270;2023-01-29T03:14:47;102998.03;;;0.91;79.20
30614;BME280;17381;51.690;5.270;2023-01-29T03:25:26;102916.22;;;0.58;79.30
30614;BME280;17381;51.690;5.270;2023-01-29T03:36:20;102978.94;;;1.06;79.29
30614;BME280;17381;51.690;5.270;2023-01-29T03:39:27;102974.00;;;1.11;79.16
30614;BME280;17381;51.690;5.270;2023-01-29T03:52:55;102959.25;;;1.10;78.88
30614;BME280;17381;51.690;5.270;2023-01-29T04:02:41;102947.34;;;1.14;78.42
30614;BME280;17381;51.690;5.270;2023-01-29T04:09:39;102942.16;;;1.14;78.18
30614;BME280;17381;51.690;5.270;2023-01-29T04:12:55;102889.69;;;0.80;78.28
30614;BME280;17381;51.690;5.270;2023-01-29T04:16:12;102947.34;;;1.14;78.47
30614;BME280;17381;51.690;5.270;2023-01-29T04:22:57;102942.22;;;1.15;78.58
30614;BME280;17381;51.690;5.270;2023-01-29T04:43:11;102895.84;;;1.20;78.42
30614;BME280;17381;51.690;5.270;2023-01-29T05:07:51;102881.25;;;1.22;78.52
30614;BME280;17381;51.690;5.270;2023-01-29T05:14:35;102876.47;;;1.31;78.25
30614;BME280;17381;51.690;5.270;2023-01-29T05:18:02;102886.16;;;1.35;77.92
30614;BME280;17381;51.690;5.270;2023-01-29T05:38:41;102823.19;;;1.17;77.80
30614;BME280;17381;51.690;5.270;2023-01-29T05:49:10;102890.13;;;1.46;78.06
30614;BME280;17381;51.690;5.270;2023-01-29T05:52:52;102889.31;;;1.47;78.28
30614;BME280;17381;51.690;5.270;2023-01-29T05:59:48;102881.56;;;1.47;78.01
30614;BME280;17381;51.690;5.270;2023-01-29T06:03:03;102876.50;;;1.50;78.25
30614;BME280;17381;51.690;5.270;2023-01-29T06:06:30;102878.25;;;1.51;77.78
30614;BME280;17381;51.690;5.270;2023-01-29T06:13:53;102893.00;;;1.52;78.10
30614;BME280;17381;51.690;5.270;2023-01-29T06:20:45;102906.09;;;1.56;77.86
30614;BME280;17381;51.690;5.270;2023-01-29T06:23:55;102885.50;;;1.59;77.80
30614;BME280;17381;51.690;5.270;2023-01-29T06:30:34;102847.47;;;1.58;77.83
30614;BME280;17381;51.690;5.270;2023-01-29T06:34:01;102844.03;;;1.59;78.14
30614;BME280;17381;51.690;5.270;2023-01-29T06:37:01;102847.47;;;1.58;77.77
30614;BME280;17381;51.690;5.270;2023-01-29T06:40:36;102860.53;;;1.61;77.90
30614;BME280;17381;51.690;5.270;2023-01-29T07:02:08;102848.72;;;1.67;77.30
30614;BME280;17381;51.690;5.270;2023-01-29T07:05:49;102824.69;;;1.50;77.40
30614;BME280;17381;51.690;5.270;2023-01-29T07:09:28;102764.03;;;1.06;77.43
30614;BME280;17381;51.690;5.270;2023-01-29T07:12:37;102824.56;;;1.47;77.58
30614;BME280;17381;51.690;5.270;2023-01-29T10:22:48;102766.09;;;3.09;72.22
30614;BME280;17381;51.690;5.270;2023-01-29T10:25:23;102698.25;;;2.75;71.92
30614;BME280;17381;51.690;5.270;2023-01-29T10:27:55;102754.00;;;3.09;72.20
30614;BME280;17381;51.690;5.270;2023-01-29T10:30:37;102762.84;;;3.14;72.25
30614;BME280;17381;51.690;5.270;2023-01-29T10:33:16;102754.28;;;3.17;72.22
30614;BME280;17381;51.690;5.270;2023-01-29T10:35:46;102742.06;;;3.14;71.79
30614;BME280;17381;51.690;5.270;2023-01-29T10:38:46;102706.75;;;2.95;71.38
30614;BME280;17381;51.690;5.270;2023-01-29T10:44:25;102766.09;;;3.33;71.01
30614;BME280;17381;51.690;5.270;2023-01-29T10:52:49;102681.09;;;3.04;70.92
30614;BME280;17381;51.690;5.270;2023-01-29T10:58:25;102724.94;;;3.45;70.95
30614;BME280;17381;51.690;5.270;2023-01-29T11:01:07;102714.53;;;3.45;71.40
30614;BME280;17381;51.690;5.270;2023-01-29T11:03:38;102716.44;;;3.49;70.89
30614;BME280;17381;51.690;5.270;2023-01-29T11:08:51;102709.75;;;3.57;70.46
30614;BME280;17381;51.690;5.270;2023-01-29T11:15:04;102704.03;;;3.67;70.26
30614;BME280;17381;51.690;5.270;2023-01-29T11:17:21;102697.97;;;3.67;69.97
30614;BME280;17381;51.690;5.270;2023-01-29T11:20:01;102683.97;;;3.63;70.56
30614;BME280;17381;51.690;5.270;2023-01-29T11:22:46;102672.94;;;3.70;69.86
30614;BME280;17381;51.690;5.270;2023-01-29T11:25:24;102670.25;;;3.67;70.48
30614;BME280;17381;51.690;5.270;2023-01-29T11:28:01;102666.06;;;3.72;69.83
30614;BME280;17381;51.690;5.270;2023-01-29T11:30:37;102591.22;;;3.35;70.38
30614;BME280;17381;51.690;5.270;2023-01-29T11:33:25;102664.50;;;3.78;70.17
30614;BME280;17381;51.690;5.270;2023-01-29T11:35:59;102647.97;;;3.76;69.82
30614;BME280;17381;51.690;5.270;2023-01-29T11:39:19;102634.88;;;3.72;70.38
30614;BME280;17381;51.690;5.270;2023-01-29T11:41:57;102592.47;;;3.48;69.53
30614;BME280;17381;51.690;5.270;2023-01-29T11:44:41;102627.94;;;3.73;70.09
30614;BME280;17381;51.690;5.270;2023-01-29T11:47:43;102633.38;;;3.81;69.56
30614;BME280;17381;51.690;5.270;2023-01-29T11:50:22;102640.16;;;3.76;70.29
30614;BME280;17381;51.690;5.270;2023-01-29T11:52:55;102627.25;;;3.79;70.28
30614;BME280;17381;51.690;5.270;2023-01-29T11:58:21;102643.78;;;3.81;69.89
30614;BME280;17381;51.690;5.270;2023-01-29T12:01:04;102644.56;;;3.78;70.30
30614;BME280;17381;51.690;5.270;2023-01-29T12:03:41;102642.13;;;3.83;70.11
30614;BME280;17381;51.690;5.270;2023-01-29T12:08:58;102616.84;;;3.79;70.01
30614;BME280;17381;51.690;5.270;2023-01-29T12:11:33;102617.00;;;3.83;69.92
30614;BME280;17381;51.690;5.270;2023-01-29T12:14:04;102557.88;;;3.49;70.35
30614;BME280;17381;51.690;5.270;2023-01-29T12:17:35;102612.72;;;3.85;70.12
30614;BME280;17381;51.690;5.270;2023-01-29T12:20:20;102603.13;;;3.83;70.89
30614;BME280;17381;51.690;5.270;2023-01-29T12:23:00;102595.47;;;3.87;70.79
30614;BME280;17381;51.690;5.270;2023-01-29T12:25:52;102591.13;;;3.88;70.87
30614;BME280;17381;51.690;5.270;2023-01-29T12:28:33;102581.38;;;3.81;70.19
30614;BME280;17381;51.690;5.270;2023-01-29T12:34:09;102578.16;;;3.89;70.40
30614;BME280;17381;51.690;5.270;2023-01-29T12:36:56;102560.75;;;3.87;70.69
30614;BME280;17381;51.690;5.270;2023-01-29T12:39:33;102565.16;;;3.89;71.03
30614;BME280;17381;51.690;5.270;2023-01-29T12:42:21;102565.16;;;3.89;70.51
30614;BME280;17381;51.690;5.270;2023-01-29T12:45:07;102544.47;;;3.94;71.18
30614;BME280;17381;51.690;5.270;2023-01-29T12:47:46;102541.88;;;3.94;71.06
30614;BME280;17381;51.690;5.270;2023-01-29T12:50:26;102541.94;;;3.96;70.63
30614;BME280;17381;51.690;5.270;2023-01-29T12:53:04;102479.44;;;3.62;70.95
30614;BME280;17381;51.690;5.270;2023-01-29T12:56:02;102530.69;;;3.97;70.77
30614;BME280;17381;51.690;5.270;2023-01-29T12:58:44;102530.75;;;3.98;71.21
30614;BME280;17381;51.690;5.270;2023-01-29T13:01:37;102534.28;;;4.00;71.31
30614;BME280;17381;51.690;5.270;2023-01-29T13:06:46;102504.66;;;3.95;71.15
30614;BME280;17381;51.690;5.270;2023-01-29T13:09:25;102508.25;;;4.00;70.87
30614;BME280;17381;51.690;5.270;2023-01-29T13:12:05;102467.81;;;3.80;71.06
30614;BME280;17381;51.690;5.270;2023-01-29T13:17:23;102486.59;;;4.01;71.01
30614;BME280;17381;51.690;5.270;2023-01-29T13:20:02;102498.94;;;4.08;71.26
30614;BME280;17381;51.690;5.270;2023-01-29T13:22:35;102485.94;;;4.08;71.12
30614;BME280;17381;51.690;5.270;2023-01-29T13:25:18;102484.22;;;4.10;71.13
30614;BME280;17381;51.690;5.270;2023-01-29T13:27:56;102480.72;;;4.08;71.41
30614;BME280;17381;51.690;5.270;2023-01-29T13:30:35;102467.72;;;4.08;71.45
30614;BME280;17381;51.690;5.270;2023-01-29T13:33:18;102456.41;;;4.06;71.22
30614;BME280;17381;51.690;5.270;2023-01-29T13:36:04;102457.31;;;4.08;71.50
30614;BME280;17381;51.690;5.270;2023-01-29T13:38:33;102459.91;;;4.08;71.50
30614;BME280;17381;51.690;5.270;2023-01-29T13:41:07;102455.66;;;4.12;71.97
30614;BME280;17381;51.690;5.270;2023-01-29T13:43:47;102444.31;;;4.08;71.62
30614;BME280;17381;51.690;5.270;2023-01-29T13:46:18;102435.56;;;4.06;72.16
30614;BME280;17381;51.690;5.270;2023-01-29T13:48:50;102413.91;;;4.06;71.52
30614;BME280;17381;51.690;5.270;2023-01-29T13:51:21;102411.50;;;4.13;71.50
30614;BME280;17381;51.690;5.270;2023-01-29T13:54:15;102398.44;;;4.12;71.82
30614;BME280;17381;51.690;5.270;2023-01-29T13:56:58;102427.38;;;4.24;71.29
30614;BME280;17381;51.690;5.270;2023-01-29T13:59:53;102420.53;;;4.28;71.39
30614;BME280;17381;51.690;5.270;2023-01-29T14:02:26;102424.78;;;4.26;71.71
30614;BME280;17381;51.690;5.270;2023-01-29T14:08:38;102428.31;;;4.28;71.82
30614;BME280;17381;51.690;5.270;2023-01-29T14:11:27;102431.00;;;4.31;71.62
30614;BME280;17381;51.690;5.270;2023-01-29T14:17:17;102424.91;;;4.29;71.37
30614;BME280;17381;51.690;5.270;2023-01-29T14:20:16;102423.19;;;4.31;72.06
30614;BME280;17381;51.690;5.270;2023-01-29T14:22:43;102400.44;;;4.22;71.71
30614;BME280;17381;51.690;5.270;2023-01-29T14:25:31;102348.59;;;3.97;72.14
30614;BME280;17381;51.690;5.270;2023-01-29T14:28:23;102398.94;;;4.32;71.81
30614;BME280;17381;51.690;5.270;2023-01-29T14:30:54;102407.63;;;4.32;71.47
30614;BME280;17381;51.690;5.270;2023-01-29T14:33:27;102407.75;;;4.37;71.54
30614;BME280;17381;51.690;5.270;2023-01-29T14:36:05;102407.78;;;4.38;71.75
30614;BME280;17381;51.690;5.270;2023-01-29T14:39:04;102401.66;;;4.36;71.61
30614;BME280;17381;51.690;5.270;2023-01-29T14:41:45;102406.03;;;4.37;71.74
30614;BME280;17381;51.690;5.270;2023-01-29T14:52:52;102391.06;;;4.29;72.18
30614;BME280;17381;51.690;5.270;2023-01-29T14:55:47;102391.03;;;4.27;71.70
30614;BME280;17381;51.690;5.270;2023-01-29T14:58:43;102390.16;;;4.27;72.19
30614;BME280;17381;51.690;5.270;2023-01-29T15:01:52;102387.53;;;4.27;71.92
30614;BME280;17381;51.690;5.270;2023-01-29T15:04:28;102273.19;;;3.63;72.47
30614;BME280;17381;51.690;5.270;2023-01-29T15:07:18;102371.06;;;4.26;72.59
30614;BME280;17381;51.690;5.270;2023-01-29T15:12:49;102371.84;;;4.24;71.74
30614;BME280;17381;51.690;5.270;2023-01-29T15:15:42;102356.25;;;4.24;71.76
30614;BME280;17381;51.690;5.270;2023-01-29T15:18:37;102361.44;;;4.24;71.85
30614;BME280;17381;51.690;5.270;2023-01-29T15:21:10;102357.91;;;4.22;71.76
30614;BME280;17381;51.690;5.270;2023-01-29T15:23:42;102365.72;;;4.22;71.93
30614;BME280;17381;51.690;5.270;2023-01-29T15:26:20;102322.78;;;4.03;71.83
30614;BME280;17381;51.690;5.270;2023-01-29T15:29:00;102339.53;;;4.15;72.37
30614;BME280;17381;51.690;5.270;2023-01-29T15:31:34;102328.03;;;4.06;72.13
30614;BME280;17381;51.690;5.270;2023-01-29T15:34:05;102336.78;;;4.09;72.44
30614;BME280;17381;51.690;5.270;2023-01-29T15:36:35;102344.75;;;4.15;72.25
30614;BME280;17381;51.690;5.270;2023-01-29T15:39:24;102349.13;;;4.18;72.37
30614;BME280;17381;51.690;5.270;2023-01-29T15:42:11;102296.47;;;3.92;72.44
30614;BME280;17381;51.690;5.270;2023-01-29T15:44:43;102314.06;;;4.02;72.27
30614;BME280;17381;51.690;5.270;2023-01-29T15:47:10;102334.25;;;4.12;72.67
30614;BME280;17381;51.690;5.270;2023-01-29T15:49:47;102331.72;;;4.15;72.56
30614;BME280;17381;51.690;5.270;2023-01-29T15:52:35;102306.03;;;3.93;72.19
30614;BME280;17381;51.690;5.270;2023-01-29T15:55:11;102322.78;;;4.04;72.48
30614;BME280;17381;51.690;5.270;2023-01-29T15:57:48;102332.47;;;4.10;72.60
30614;BME280;17381;51.690;5.270;2023-01-29T16:00:26;102326.44;;;4.11;72.56
30614;BME280;17381;51.690;5.270;2023-01-29T16:03:18;102263.25;;;3.80;72.41
30614;BME280;17381;51.690;5.270;2023-01-29T16:06:07;102314.97;;;4.03;72.05
30614;BME280;17381;51.690;5.270;2023-01-29T16:08:37;102218.88;;;3.39;72.21
30614;BME280;17381;51.690;5.270;2023-01-29T16:11:07;102327.91;;;4.01;72.27
30614;BME280;17381;51.690;5.270;2023-01-29T16:13:38;102253.28;;;3.64;72.47
30614;BME280;17381;51.690;5.270;2023-01-29T16:18:43;102308.78;;;3.99;72.47
30614;BME280;17381;51.690;5.270;2023-01-29T16:27:35;102298.84;;;3.83;71.98
30614;BME280;17381;51.690;5.270;2023-01-29T16:48:30;102289.78;;;3.67;73.53
30614;BME280;17381;51.690;5.270;2023-01-29T16:55:17;102291.66;;;3.74;73.32
30614;BME280;17381;51.690;5.270;2023-01-29T16:58:45;102214.22;;;3.27;73.04
30614;BME280;17381;51.690;5.270;2023-01-29T17:01:33;102295.19;;;3.76;73.29
30614;BME280;17381;51.690;5.270;2023-01-29T17:04:09;102287.38;;;3.75;73.19
30614;BME280;17381;51.690;5.270;2023-01-29T17:07:11;102290.00;;;3.76;72.91
30614;BME280;17381;51.690;5.270;2023-01-29T17:09:46;102283.84;;;3.72;73.06
30614;BME280;17381;51.690;5.270;2023-01-29T17:12:31;102288.41;;;3.81;73.03
30614;BME280;17381;51.690;5.270;2023-01-29T17:15:03;102281.53;;;3.83;72.82
30614;BME280;17381;51.690;5.270;2023-01-29T17:17:39;102243.59;;;3.57;73.11
30614;BME280;17381;51.690;5.270;2023-01-29T17:27:28;102279.66;;;3.78;73.20
30614;BME280;17381;51.690;5.270;2023-01-29T17:44:31;102255.84;;;3.62;74.04
30614;BME280;17381;51.690;5.270;2023-01-29T17:47:12;102262.19;;;3.74;74.05
30614;BME280;17381;51.690;5.270;2023-01-29T17:49:55;102259.59;;;3.74;73.85
30614;BME280;17381;51.690;5.270;2023-01-29T17:52:29;102257.91;;;3.76;73.81
30614;BME280;17381;51.690;5.270;2023-01-29T17:55:07;102246.66;;;3.75;73.75
30614;BME280;17381;51.690;5.270;2023-01-29T17:57:37;102237.00;;;3.71;73.78
30614;BME280;17381;51.690;5.270;2023-01-29T18:00:28;102229.06;;;3.65;74.32
30614;BME280;17381;51.690;5.270;2023-01-29T18:02:57;102244.06;;;3.77;74.57
30614;BME280;17381;51.690;5.270;2023-01-29T18:05:36;102242.25;;;3.72;74.25
30614;BME280;17381;51.690;5.270;2023-01-29T18:08:14;102256.25;;;3.79;74.38
30614;BME280;17381;51.690;5.270;2023-01-29T18:10:56;102240.56;;;3.75;74.34
30614;BME280;17381;51.690;5.270;2023-01-29T18:13:31;102249.28;;;3.77;74.23
30614;BME280;17381;51.690;5.270;2023-01-29T18:16:11;102251.84;;;3.75;74.17
30614;BME280;17381;51.690;5.270;2023-01-29T18:18:43;102240.47;;;3.71;74.61
30614;BME280;17381;51.690;5.270;2023-01-29T18:21:11;102235.25;;;3.70;74.98
30614;BME280;17381;51.690;5.270;2023-01-29T18:23:40;102241.56;;;3.80;74.98
30614;BME280;17381;51.690;5.270;2023-01-29T18:26:09;102229.31;;;3.76;75.56
30614;BME280;17381;51.690;5.270;2023-01-29T18:28:40;102227.66;;;3.79;75.62
30614;BME280;17381;51.690;5.270;2023-01-29T18:31:10;102220.78;;;3.81;75.96
30614;BME280;17381;51.690;5.270;2023-01-29T18:33:41;102191.94;;;3.70;75.81
30614;BME280;17381;51.690;5.270;2023-01-29T18:36:10;102206.91;;;3.81;76.00
30614;BME280;17381;51.690;5.270;2023-01-29T18:38:45;102196.44;;;3.78;76.10
30614;BME280;17381;51.690;5.270;2023-01-29T18:41:11;102204.31;;;3.81;76.60
30614;BME280;17381;51.690;5.270;2023-01-29T18:43:40;102182.53;;;3.76;76.54
30614;BME280;17381;51.690;5.270;2023-01-29T18:46:24;102128.03;;;3.44;77.08
30614;BME280;17381;51.690;5.270;2023-01-29T18:49:12;102164.03;;;3.63;77.32
30614;BME280;17381;51.690;5.270;2023-01-29T18:51:50;102144.69;;;3.52;76.87
30614;BME280;17381;51.690;5.270;2023-01-29T18:54:21;102171.06;;;3.67;77.21
30614;BME280;17381;51.690;5.270;2023-01-29T18:56:54;102164.09;;;3.66;76.92
30614;BME280;17381;51.690;5.270;2023-01-29T18:59:26;102159.88;;;3.71;77.67
30614;BME280;17381;51.690;5.270;2023-01-29T19:02:08;102157.38;;;3.76;77.26
30614;BME280;17381;51.690;5.270;2023-01-29T19:05:04;102160.00;;;3.76;78.14
30614;BME280;17381;51.690;5.270;2023-01-29T19:07:43;102059.06;;;3.20;77.79
30614;BME280;17381;51.690;5.270;2023-01-29T19:10:12;102140.97;;;3.77;77.70
30614;BME280;17381;51.690;5.270;2023-01-29T19:12:53;102134.97;;;3.80;77.98
30614;BME280;17381;51.690;5.270;2023-01-29T19:15:36;102134.97;;;3.80;78.29
30614;BME280;17381;51.690;5.270;2023-01-29T19:18:17;102131.44;;;3.78;78.69
30614;BME280;17381;51.690;5.270;2023-01-29T19:20:46;102130.66;;;3.82;78.17
30614;BME280;17381;51.690;5.270;2023-01-29T19:23:24;102123.75;;;3.82;78.39
30614;BME280;17381;51.690;5.270;2023-01-29T19:25:59;102114.13;;;3.78;78.23
30614;BME280;17381;51.690;5.270;2023-01-29T19:28:38;102108.22;;;3.85;78.42
30614;BME280;17381;51.690;5.270;2023-01-29T19:31:27;102111.56;;;3.80;78.66
30614;BME280;17381;51.690;5.270;2023-01-29T19:33:59;102099.53;;;3.85;79.01
30614;BME280;17381;51.690;5.270;2023-01-29T19:36:26;102102.09;;;3.83;78.88
30614;BME280;17381;51.690;5.270;2023-01-29T19:38:56;102091.78;;;3.88;78.59
30614;BME280;17381;51.690;5.270;2023-01-29T19:41:27;102079.56;;;3.84;79.09
30614;BME280;17381;51.690;5.270;2023-01-29T19:44:09;102085.81;;;3.92;79.07
30614;BME280;17381;51.690;5.270;2023-01-29T19:46:42;102074.50;;;3.90;78.92
30614;BME280;17381;51.690;5.270;2023-01-29T19:49:17;102075.41;;;3.92;79.14
30614;BME280;17381;51.690;5.270;2023-01-29T19:51:59;102018.38;;;3.60;78.81
30614;BME280;17381;51.690;5.270;2023-01-29T19:54:42;102070.13;;;3.89;79.02
30614;BME280;17381;51.690;5.270;2023-01-29T19:57:22;102076.31;;;3.92;78.89
30614;BME280;17381;51.690;5.270;2023-01-29T19:59:56;102013.13;;;3.57;78.99
30614;BME280;17381;51.690;5.270;2023-01-29T20:02:45;102090.25;;;3.96;79.61
30614;BME280;17381;51.690;5.270;2023-01-29T20:05:38;102098.03;;;3.96;79.19
30614;BME280;17381;51.690;5.270;2023-01-29T20:08:16;102086.81;;;3.99;79.23
30614;BME280;17381;51.690;5.270;2023-01-29T20:10:54;101965.94;;;3.39;79.75
30614;BME280;17381;51.690;5.270;2023-01-29T20:13:22;102025.47;;;3.67;79.58
30614;BME280;17381;51.690;5.270;2023-01-29T20:15:50;102073.97;;;4.06;79.53
30614;BME280;17381;51.690;5.270;2023-01-29T20:18:52;102064.50;;;4.08;79.53
30614;BME280;17381;51.690;5.270;2023-01-29T20:21:38;102072.31;;;4.10;80.21
30614;BME280;17381;51.690;5.270;2023-01-29T20:24:21;102016.31;;;3.85;80.55
30614;BME280;17381;51.690;5.270;2023-01-29T20:27:03;102075.00;;;4.14;80.53
30614;BME280;17381;51.690;5.270;2023-01-29T20:29:40;101969.72;;;3.53;80.44
30614;BME280;17381;51.690;5.270;2023-01-29T20:32:15;102014.50;;;3.81;80.33
30614;BME280;17381;51.690;5.270;2023-01-29T20:34:53;102058.47;;;4.11;80.37
30614;BME280;17381;51.690;5.270;2023-01-29T20:37:22;102041.09;;;4.08;81.18
30614;BME280;17381;51.690;5.270;2023-01-29T20:39:56;102062.06;;;4.18;81.28
30614;BME280;17381;51.690;5.270;2023-01-29T20:42:34;102060.38;;;4.20;80.84
30614;BME280;17381;51.690;5.270;2023-01-29T20:45:35;102060.31;;;4.18;81.31
30614;BME280;17381;51.690;5.270;2023-01-29T20:48:12;102060.41;;;4.21;81.46
30614;BME280;17381;51.690;5.270;2023-01-29T20:50:39;102062.09;;;4.19;81.61
30614;BME280;17381;51.690;5.270;2023-01-29T20:53:14;102048.13;;;4.15;81.65
30614;BME280;17381;51.690;5.270;2023-01-29T20:56:00;102050.88;;;4.22;81.53
30614;BME280;17381;51.690;5.270;2023-01-29T20:58:31;102044.81;;;4.21;81.34
30614;BME280;17381;51.690;5.270;2023-01-29T21:01:00;102034.41;;;4.21;81.44
30614;BME280;17381;51.690;5.270;2023-01-29T21:03:29;102048.19;;;4.17;81.57
30614;BME280;17381;51.690;5.270;2023-01-29T21:06:09;102064.81;;;4.24;81.84
30614;BME280;17381;51.690;5.270;2023-01-29T21:08:36;102080.41;;;4.24;81.77
30614;BME280;17381;51.690;5.270;2023-01-29T21:11:07;102062.13;;;4.21;81.80
30614;BME280;17381;51.690;5.270;2023-01-29T21:13:44;102061.41;;;4.28;81.90
30614;BME280;17381;51.690;5.270;2023-01-29T21:16:43;102042.16;;;4.20;82.09
30614;BME280;17381;51.690;5.270;2023-01-29T21:19:26;102000.06;;;3.97;81.78
30614;BME280;17381;51.690;5.270;2023-01-29T21:22:02;102045.78;;;4.28;82.02
30614;BME280;17381;51.690;5.270;2023-01-29T21:24:39;102042.31;;;4.27;81.96
30614;BME280;17381;51.690;5.270;2023-01-29T21:27:08;102041.44;;;4.27;82.43
30614;BME280;17381;51.690;5.270;2023-01-29T21:29:42;102038.91;;;4.30;82.50
30614;BME280;17381;51.690;5.270;2023-01-29T21:32:14;101985.38;;;3.99;82.83
30614;BME280;17381;51.690;5.270;2023-01-29T21:34:52;102021.44;;;4.26;82.75
30614;BME280;17381;51.690;5.270;2023-01-29T21:37:32;102042.47;;;4.35;82.37
30614;BME280;17381;51.690;5.270;2023-01-29T21:40:06;102023.34;;;4.33;83.10
30614;BME280;17381;51.690;5.270;2023-01-29T21:42:36;102048.53;;;4.34;82.90
30614;BME280;17381;51.690;5.270;2023-01-29T21:45:20;102053.78;;;4.37;83.03
30614;BME280;17381;51.690;5.270;2023-01-29T21:47:49;102060.78;;;4.41;83.35
30614;BME280;17381;51.690;5.270;2023-01-29T21:50:20;102058.28;;;4.44;83.20
30614;BME280;17381;51.690;5.270;2023-01-29T21:52:57;102052.16;;;4.44;83.46
30614;BME280;17381;51.690;5.270;2023-01-29T21:59:23;102022.78;;;4.49;83.82
30614;BME280;17381;51.690;5.270;2023-01-29T22:02:25;101997.53;;;4.45;84.00
30614;BME280;17381;51.690;5.270;2023-01-29T22:04:57;102028.88;;;4.51;83.67
30614;BME280;17381;51.690;5.270;2023-01-29T22:07:55;102008.06;;;4.51;83.94
30614;BME280;17381;51.690;5.270;2023-01-29T23:44:02;101840.28;;;4.89;87.57
